Terminal Aerodrome Forecast
Issued by NWS North Platte, NE

Home | Current Version | Previous Version | Graphics & Text | Print | Product List | Glossary On
Versions: 1 2 3 4 5 6 7 8 9 10 11 12 13 14 15 16 17 18 19 20 21 22 23 24 25
000
FTUS43 KLBF 270307 AAF
TAFVTN
TAF AMD
KVTN 270307Z 2703/2724 15015G22KT 5SM -TSRA BKN040 BKN080 OVC110CB
     FM270400 16014KT P6SM -SHRA BKN035 OVC150
     FM270600 36010KT P6SM BKN035 BKN100
     FM271000 36008KT P6SM BKN015 OVC150
     FM271500 36008KT P6SM SCT015 BKN150
     FM271800 01010KT P6SM SCT060 BKN150=

USA.gov is the U.S. government's official web portal to all federal, state and local government web resources and services.